createdAt,value
2022-11-30T00:00:16.658Z,7.71
2022-11-30T00:02:42.981Z,7.72
2022-11-30T00:05:09.381Z,7.63
2022-11-30T00:07:35.711Z,7.61
2022-11-30T00:10:02.004Z,7.00
2022-11-30T00:12:28.238Z,6.70
2022-11-30T00:14:54.489Z,6.31
2022-11-30T00:17:20.723Z,6.74
2022-11-30T00:19:46.990Z,7.39
2022-11-30T00:22:13.242Z,6.93
2022-11-30T00:24:39.502Z,7.01
2022-11-30T00:27:05.733Z,7.01
2022-11-30T00:29:31.977Z,7.09
2022-11-30T00:31:58.213Z,6.78
2022-11-30T00:34:24.446Z,6.99
2022-11-30T00:36:50.709Z,7.03
2022-11-30T00:39:16.934Z,7.31
2022-11-30T00:41:43.177Z,6.97
2022-11-30T00:44:09.483Z,7.33
2022-11-30T00:46:35.763Z,7.54
2022-11-30T00:49:02.056Z,7.28
2022-11-30T00:51:28.305Z,7.77
2022-11-30T00:53:54.554Z,7.96
2022-11-30T00:56:20.789Z,8.28
2022-11-30T00:58:47.036Z,7.96
2022-11-30T01:01:13.332Z,8.37
2022-11-30T01:03:39.903Z,8.77
2022-11-30T01:06:06.137Z,9.29
2022-11-30T01:08:32.517Z,9.11
2022-11-30T01:10:58.768Z,8.82
2022-11-30T01:13:24.998Z,9.30
2022-11-30T01:15:51.313Z,9.36
2022-11-30T01:18:17.603Z,9.02
2022-11-30T01:20:43.839Z,9.23
2022-11-30T01:23:10.069Z,8.63
2022-11-30T01:25:36.308Z,9.07
2022-11-30T01:28:02.569Z,8.95
2022-11-30T01:30:28.853Z,9.00
2022-11-30T01:32:55.147Z,9.11
2022-11-30T01:35:21.381Z,8.73
2022-11-30T01:37:47.625Z,9.09
2022-11-30T01:40:13.880Z,9.03
2022-11-30T01:42:40.114Z,8.63
2022-11-30T01:45:06.381Z,8.88
2022-11-30T01:47:32.662Z,8.21
2022-11-30T01:49:58.909Z,8.33
2022-11-30T01:52:25.232Z,7.86
2022-11-30T01:54:51.506Z,8.11
2022-11-30T01:57:17.755Z,7.64
2022-11-30T01:59:44.004Z,7.71
2022-11-30T02:02:10.325Z,7.37
2022-11-30T02:04:36.588Z,7.62
2022-11-30T02:07:02.820Z,7.87
2022-11-30T02:09:29.068Z,7.95
2022-11-30T02:11:55.346Z,7.87
2022-11-30T02:14:21.590Z,7.62
2022-11-30T02:16:47.852Z,7.69
2022-11-30T02:19:14.225Z,8.01
2022-11-30T02:21:40.481Z,7.87
2022-11-30T02:24:06.729Z,7.92
2022-11-30T02:26:33.076Z,7.15
2022-11-30T02:28:59.422Z,7.44
2022-11-30T02:31:25.898Z,7.36
2022-11-30T02:33:52.257Z,7.15
2022-11-30T02:36:18.525Z,7.43
2022-11-30T02:38:44.776Z,7.65
2022-11-30T02:41:11.017Z,7.68
2022-11-30T02:43:37.266Z,7.56
2022-11-30T02:46:03.557Z,7.92
2022-11-30T02:48:29.847Z,8.07
2022-11-30T02:50:56.096Z,7.97
2022-11-30T02:53:22.325Z,7.79
2022-11-30T02:55:48.577Z,7.74
2022-11-30T02:58:14.817Z,7.39
2022-11-30T03:00:41.084Z,7.62
2022-11-30T03:03:07.436Z,6.83
2022-11-30T03:05:33.711Z,6.95
2022-11-30T03:08:00.004Z,6.73
2022-11-30T03:10:26.297Z,6.51
2022-11-30T03:12:52.538Z,6.15
2022-11-30T03:15:18.786Z,5.69
2022-11-30T03:17:45.036Z,5.64
2022-11-30T03:20:11.285Z,5.53
2022-11-30T03:22:37.539Z,5.34
2022-11-30T03:25:03.784Z,5.21
2022-11-30T03:27:30.122Z,5.12
2022-11-30T03:29:56.345Z,5.05
2022-11-30T03:32:22.584Z,5.24
2022-11-30T03:34:49.195Z,4.90
2022-11-30T03:37:15.669Z,4.84
2022-11-30T03:39:41.921Z,4.85
2022-11-30T03:42:08.174Z,4.70
2022-11-30T03:44:34.438Z,5.14
2022-11-30T03:47:00.686Z,5.05
2022-11-30T03:49:26.913Z,4.74
2022-11-30T03:51:53.158Z,4.85
2022-11-30T03:54:19.409Z,4.75
2022-11-30T03:56:45.661Z,4.89
2022-11-30T03:59:11.915Z,4.83
2022-11-30T04:01:38.167Z,4.53
2022-11-30T04:04:04.418Z,4.77
2022-11-30T04:06:30.665Z,4.63
2022-11-30T04:08:56.917Z,4.60
2022-11-30T04:11:23.164Z,4.66
2022-11-30T04:13:49.397Z,4.87
2022-11-30T04:16:15.796Z,4.93
2022-11-30T04:18:42.083Z,4.94
2022-11-30T04:21:08.319Z,5.00
2022-11-30T04:23:34.541Z,4.90
2022-11-30T04:26:00.767Z,5.16
2022-11-30T04:28:27.030Z,5.04
2022-11-30T04:30:53.371Z,5.09
2022-11-30T04:33:19.715Z,5.10
2022-11-30T04:35:45.966Z,5.28
2022-11-30T04:38:12.222Z,5.18
2022-11-30T04:40:38.477Z,5.60
2022-11-30T04:43:04.729Z,5.80
2022-11-30T04:45:35.139Z,5.41
2022-11-30T04:48:01.839Z,5.72
2022-11-30T04:50:28.086Z,5.39
2022-11-30T04:52:54.336Z,5.49
2022-11-30T04:55:20.602Z,5.67
2022-11-30T04:57:46.836Z,5.96
2022-11-30T05:00:13.085Z,6.51
2022-11-30T05:02:39.343Z,6.00
2022-11-30T05:05:05.577Z,5.75
2022-11-30T05:07:32.016Z,6.02
2022-11-30T05:09:58.285Z,6.16
2022-11-30T05:12:24.518Z,5.66
2022-11-30T05:14:50.861Z,6.04
2022-11-30T05:17:17.095Z,6.17
2022-11-30T05:19:43.337Z,6.10
2022-11-30T05:22:09.614Z,5.79
2022-11-30T05:24:35.874Z,6.29
2022-11-30T05:27:02.114Z,6.24
2022-11-30T05:29:28.368Z,6.49
2022-11-30T05:31:54.617Z,6.36
2022-11-30T05:34:20.878Z,6.21
2022-11-30T05:36:47.108Z,6.33
2022-11-30T05:39:13.341Z,6.15
2022-11-30T05:41:39.570Z,6.09
2022-11-30T05:44:05.826Z,6.13
2022-11-30T05:46:32.101Z,5.87
2022-11-30T05:48:58.400Z,6.48
2022-11-30T05:51:24.633Z,6.65
2022-11-30T05:53:50.878Z,6.85
2022-11-30T05:56:17.136Z,7.12
2022-11-30T05:58:43.378Z,6.99
2022-11-30T06:01:09.628Z,7.80
2022-11-30T06:03:35.877Z,7.18
2022-11-30T06:06:02.102Z,6.51
2022-11-30T06:08:28.338Z,7.42
2022-11-30T06:10:54.575Z,8.66
2022-11-30T06:13:23.574Z,7.11
2022-11-30T06:15:53.751Z,6.53
2022-11-30T06:18:19.981Z,6.96
2022-11-30T06:20:46.329Z,6.71
2022-11-30T06:23:12.567Z,6.92
2022-11-30T06:25:38.798Z,6.89
2022-11-30T06:28:05.142Z,6.70
2022-11-30T06:30:31.383Z,7.05
2022-11-30T06:32:57.630Z,6.62
2022-11-30T06:35:23.880Z,6.88
2022-11-30T06:37:50.133Z,7.32
2022-11-30T06:40:16.376Z,7.00
2022-11-30T06:42:42.605Z,6.70
2022-11-30T06:45:08.839Z,6.92
2022-11-30T06:47:35.100Z,7.19
2022-11-30T06:50:01.348Z,7.64
2022-11-30T06:52:27.596Z,7.53
2022-11-30T06:54:53.845Z,6.98
2022-11-30T06:57:20.085Z,7.93
2022-11-30T06:59:46.356Z,9.07
2022-11-30T07:02:17.483Z,8.10
2022-11-30T07:04:44.987Z,7.80
2022-11-30T07:07:11.418Z,7.70
2022-11-30T07:09:37.650Z,8.22
2022-11-30T07:12:03.885Z,8.16
2022-11-30T07:14:30.113Z,8.63
2022-11-30T07:16:56.381Z,7.93
2022-11-30T07:19:22.620Z,8.04
2022-11-30T07:21:48.869Z,7.95
2022-11-30T07:24:16.200Z,7.73
2022-11-30T07:26:42.429Z,7.58
2022-11-30T07:29:08.666Z,7.83
2022-11-30T07:31:35.047Z,8.07
2022-11-30T07:34:01.329Z,7.96
2022-11-30T07:36:27.564Z,7.92
2022-11-30T07:38:53.803Z,8.21
2022-11-30T07:41:20.048Z,8.83
2022-11-30T07:43:46.278Z,8.17
2022-11-30T07:46:12.612Z,7.97
2022-11-30T07:48:38.905Z,7.87
2022-11-30T07:51:05.160Z,7.94
2022-11-30T07:53:31.406Z,7.97
2022-11-30T07:55:57.637Z,8.53
2022-11-30T07:58:23.876Z,8.11
2022-11-30T08:00:50.273Z,8.58
2022-11-30T08:03:16.584Z,8.46
2022-11-30T08:05:42.823Z,8.58
2022-11-30T08:08:09.058Z,8.54
2022-11-30T08:10:35.308Z,8.56
2022-11-30T08:13:01.567Z,9.52
2022-11-30T08:15:32.384Z,10.10
2022-11-30T08:17:59.626Z,10.71
2022-11-30T08:20:25.858Z,9.39
2022-11-30T08:22:52.094Z,9.96
2022-11-30T08:25:18.344Z,9.48
2022-11-30T08:27:44.594Z,9.06
2022-11-30T08:30:10.825Z,9.57
2022-11-30T08:32:37.061Z,9.37
2022-11-30T08:35:03.343Z,8.92
2022-11-30T08:37:29.679Z,11.14
2022-11-30T08:39:56.024Z,10.50
2022-11-30T08:42:22.257Z,9.99
2022-11-30T08:44:48.492Z,9.38
2022-11-30T08:47:14.758Z,9.88
2022-11-30T08:49:41.246Z,9.35
2022-11-30T08:52:22.914Z,9.67
2022-11-30T08:54:49.408Z,9.07
2022-11-30T08:57:16.048Z,9.17
2022-11-30T08:59:42.289Z,9.11
2022-11-30T09:02:08.631Z,9.30
2022-11-30T09:04:34.906Z,8.64
2022-11-30T09:07:01.190Z,8.67
2022-11-30T09:09:27.474Z,9.01
2022-11-30T09:11:53.701Z,9.30
2022-11-30T09:14:19.963Z,8.89
2022-11-30T09:16:46.222Z,8.87
2022-11-30T09:19:12.460Z,8.60
2022-11-30T09:21:39.053Z,8.64
2022-11-30T09:24:05.333Z,9.08
2022-11-30T09:26:31.564Z,8.93
2022-11-30T09:28:57.816Z,8.88
2022-11-30T09:31:24.061Z,8.64
2022-11-30T09:33:50.290Z,8.04
2022-11-30T09:36:16.552Z,8.01
2022-11-30T09:38:42.801Z,8.00
2022-11-30T09:41:09.041Z,7.83
2022-11-30T09:43:35.278Z,8.34
2022-11-30T09:46:01.572Z,7.78
2022-11-30T09:48:27.817Z,7.88
2022-11-30T09:50:54.046Z,8.49
2022-11-30T09:53:23.256Z,8.25
2022-11-30T09:55:53.982Z,8.33
2022-11-30T09:58:20.213Z,8.58
2022-11-30T10:00:46.469Z,8.75
2022-11-30T10:03:12.802Z,8.39
2022-11-30T10:05:39.122Z,8.04
2022-11-30T10:08:05.460Z,8.42
2022-11-30T10:10:33.069Z,8.74
2022-11-30T10:12:59.706Z,8.87
2022-11-30T10:15:25.966Z,9.38
2022-11-30T10:17:52.221Z,9.14
2022-11-30T10:20:18.470Z,9.30
2022-11-30T10:22:44.718Z,9.22
2022-11-30T10:25:12.177Z,9.12
2022-11-30T10:27:38.522Z,10.00
2022-11-30T10:30:04.873Z,9.77
2022-11-30T10:32:31.130Z,9.07
2022-11-30T10:34:57.367Z,9.57
2022-11-30T10:37:23.633Z,9.84
2022-11-30T10:39:49.889Z,9.37
2022-11-30T10:42:16.134Z,9.76
2022-11-30T10:44:42.387Z,10.06
2022-11-30T10:47:08.626Z,9.82
2022-11-30T10:49:34.875Z,9.62
2022-11-30T10:52:01.249Z,9.13
2022-11-30T10:54:27.517Z,9.35
2022-11-30T10:56:53.761Z,9.60
2022-11-30T10:59:19.990Z,9.66
2022-11-30T11:01:46.269Z,9.55
2022-11-30T11:04:12.669Z,9.44
2022-11-30T11:06:38.976Z,9.58
2022-11-30T11:09:05.241Z,9.88
2022-11-30T11:11:31.473Z,9.72
2022-11-30T11:13:57.706Z,9.41
2022-11-30T11:16:23.998Z,9.38
2022-11-30T11:18:50.273Z,8.82
2022-11-30T11:21:16.524Z,9.37
2022-11-30T11:23:42.778Z,9.53
2022-11-30T11:26:09.018Z,8.98
2022-11-30T11:28:35.261Z,9.28
2022-11-30T11:31:01.568Z,9.22
2022-11-30T11:33:27.824Z,8.98
2022-11-30T11:35:54.091Z,9.09
2022-11-30T11:38:20.334Z,9.82
2022-11-30T11:40:46.558Z,9.53
2022-11-30T11:43:12.789Z,8.79
2022-11-30T11:45:39.041Z,8.32
2022-11-30T11:48:05.402Z,7.46
2022-11-30T11:51:04.916Z,7.30
2022-11-30T11:53:17.936Z,6.36
2022-11-30T11:55:44.190Z,6.94
2022-11-30T11:58:10.449Z,5.92
2022-11-30T12:00:36.696Z,5.73
2022-11-30T12:03:02.963Z,5.50
2022-11-30T12:05:29.211Z,5.64
2022-11-30T12:07:55.476Z,5.33
2022-11-30T12:10:50.685Z,5.99
2022-11-30T12:13:07.963Z,4.88
2022-11-30T12:15:34.216Z,4.90
2022-11-30T12:18:00.450Z,5.39
2022-11-30T12:20:26.678Z,5.20
2022-11-30T12:22:52.931Z,5.55
2022-11-30T12:25:19.184Z,5.42
2022-11-30T12:27:50.469Z,5.51
2022-11-30T12:30:19.724Z,5.22
2022-11-30T12:32:45.961Z,5.40
2022-11-30T12:35:12.212Z,5.10
2022-11-30T12:37:41.714Z,5.20
2022-11-30T12:40:10.587Z,5.60
2022-11-30T12:42:36.817Z,5.30
2022-11-30T12:45:03.050Z,5.06
2022-11-30T12:47:29.298Z,4.82
2022-11-30T12:49:55.573Z,4.91
2022-11-30T12:52:21.802Z,5.15
2022-11-30T12:54:48.264Z,5.36
2022-11-30T12:57:14.785Z,5.20
2022-11-30T12:59:41.043Z,5.29
2022-11-30T13:02:07.322Z,4.95
2022-11-30T13:04:33.583Z,4.82
2022-11-30T13:06:59.829Z,5.23
2022-11-30T13:09:26.080Z,5.03
2022-11-30T13:11:52.326Z,5.06
2022-11-30T13:14:18.574Z,5.57
2022-11-30T13:16:44.806Z,5.41
2022-11-30T13:19:11.059Z,5.65
2022-11-30T13:21:37.326Z,5.56
2022-11-30T13:24:03.567Z,5.65
2022-11-30T13:26:29.825Z,6.28
2022-11-30T13:28:56.084Z,6.03
2022-11-30T13:31:22.416Z,6.29
2022-11-30T13:33:48.738Z,6.78
2022-11-30T13:36:14.978Z,6.16
2022-11-30T13:38:41.218Z,6.06
2022-11-30T13:41:07.490Z,5.94
2022-11-30T13:43:33.735Z,5.87
2022-11-30T13:45:59.985Z,6.23
2022-11-30T13:48:26.215Z,6.83
2022-11-30T13:50:52.467Z,6.53
2022-11-30T13:53:18.709Z,7.18
2022-11-30T13:55:44.957Z,7.49
2022-11-30T13:58:11.292Z,7.30
2022-11-30T14:00:37.583Z,7.41
2022-11-30T14:05:48.060Z,7.96
2022-11-30T14:08:14.297Z,8.40
2022-11-30T14:10:40.534Z,7.81
2022-11-30T14:13:06.777Z,7.76
2022-11-30T14:15:33.006Z,8.47
2022-11-30T14:17:59.254Z,8.31
2022-11-30T14:20:25.501Z,8.74
2022-11-30T14:22:51.733Z,9.67
2022-11-30T14:25:17.958Z,9.41
2022-11-30T14:27:44.193Z,9.76
2022-11-30T14:30:10.443Z,9.57
2022-11-30T14:32:36.697Z,10.38
2022-11-30T14:35:02.935Z,9.44
2022-11-30T14:37:29.310Z,11.27
2022-11-30T14:39:55.592Z,15.07
2022-11-30T14:42:21.843Z,20.09
2022-11-30T14:44:48.085Z,14.78
2022-11-30T14:47:14.364Z,12.62
2022-11-30T14:49:40.625Z,11.60
2022-11-30T14:52:06.894Z,15.13
2022-11-30T14:54:33.155Z,12.42
2022-11-30T14:56:59.404Z,14.70
2022-11-30T14:59:25.645Z,13.14
2022-11-30T15:01:51.940Z,13.90
2022-11-30T15:04:18.229Z,17.12
2022-11-30T15:06:44.469Z,24.89
2022-11-30T15:09:10.714Z,21.44
2022-11-30T15:11:36.974Z,22.35
2022-11-30T15:14:03.236Z,15.72
2022-11-30T15:16:29.551Z,13.46
2022-11-30T15:18:55.922Z,12.61
2022-11-30T15:21:22.151Z,12.50
2022-11-30T15:23:51.441Z,11.77
2022-11-30T15:26:17.931Z,11.82
2022-11-30T15:28:44.167Z,11.34
2022-11-30T15:31:10.625Z,10.77
2022-11-30T15:33:36.932Z,11.03
2022-11-30T15:36:27.790Z,11.96
2022-11-30T15:38:49.433Z,11.18
2022-11-30T15:41:15.689Z,10.94
2022-11-30T15:43:41.929Z,10.72
2022-11-30T15:46:08.212Z,10.92
2022-11-30T15:48:34.481Z,10.53
2022-11-30T15:51:00.831Z,10.44
2022-11-30T15:53:27.075Z,10.40
2022-11-30T15:55:53.314Z,11.48
2022-11-30T15:58:19.550Z,11.82
2022-11-30T16:00:45.846Z,10.68
2022-11-30T16:03:12.163Z,10.47
2022-11-30T16:05:38.425Z,10.22
2022-11-30T16:08:04.738Z,10.76
2022-11-30T16:10:31.042Z,11.54
2022-11-30T16:12:57.306Z,13.16
2022-11-30T16:15:23.551Z,19.98
2022-11-30T16:17:49.811Z,15.90
2022-11-30T16:20:16.059Z,14.53
2022-11-30T16:22:42.314Z,13.67
2022-11-30T16:25:08.585Z,14.56
2022-11-30T16:27:34.889Z,14.68
2022-11-30T16:30:01.405Z,14.54
2022-11-30T16:32:27.709Z,15.11
2022-11-30T16:34:54.029Z,14.61
2022-11-30T16:37:20.299Z,14.30
2022-11-30T16:39:47.072Z,13.01
2022-11-30T16:42:13.522Z,12.48
2022-11-30T16:44:39.777Z,11.51
2022-11-30T16:47:06.015Z,10.98
2022-11-30T16:49:32.251Z,10.30
2022-11-30T16:51:58.496Z,10.74
2022-11-30T16:54:24.741Z,11.25
2022-11-30T16:56:50.982Z,10.70
2022-11-30T16:59:17.294Z,13.02
2022-11-30T17:01:43.707Z,11.89
2022-11-30T17:04:09.983Z,13.29
2022-11-30T17:06:36.240Z,11.75
2022-11-30T17:09:02.495Z,11.09
2022-11-30T17:11:28.963Z,11.07
2022-11-30T17:13:55.244Z,10.84
2022-11-30T17:16:21.546Z,12.78
2022-11-30T17:18:47.826Z,11.66
2022-11-30T17:21:14.057Z,9.49
2022-11-30T17:23:40.281Z,8.58
2022-11-30T17:26:06.520Z,10.59
2022-11-30T17:28:32.769Z,14.68
2022-11-30T17:30:59.115Z,10.66
2022-11-30T17:33:25.433Z,10.01
2022-11-30T17:35:51.744Z,8.76
2022-11-30T17:38:18.050Z,9.06
2022-11-30T17:40:44.316Z,9.40
2022-11-30T17:43:10.575Z,10.30
2022-11-30T17:45:36.842Z,10.98
2022-11-30T17:48:03.114Z,10.47
2022-11-30T17:50:29.380Z,10.41
2022-11-30T17:52:55.632Z,9.21
2022-11-30T17:55:21.865Z,9.42
2022-11-30T17:57:48.110Z,9.06
2022-11-30T18:00:14.376Z,8.38
2022-11-30T18:02:40.648Z,8.40
2022-11-30T18:05:06.944Z,9.83
2022-11-30T18:07:33.262Z,9.66
2022-11-30T18:09:59.581Z,9.59
2022-11-30T18:12:25.833Z,8.66
2022-11-30T18:14:52.080Z,8.17
2022-11-30T18:17:18.334Z,8.01
2022-11-30T18:19:44.584Z,7.70
2022-11-30T18:22:10.833Z,7.76
2022-11-30T18:24:37.085Z,7.83
2022-11-30T18:27:03.341Z,7.95
2022-11-30T18:29:29.597Z,8.73
2022-11-30T18:31:55.841Z,9.23
2022-11-30T18:34:22.078Z,9.25
2022-11-30T18:36:48.321Z,9.03
2022-11-30T18:39:14.572Z,8.98
2022-11-30T18:41:40.810Z,7.98
2022-11-30T18:44:07.041Z,8.26
2022-11-30T18:46:33.327Z,7.83
2022-11-30T18:48:59.635Z,7.29
2022-11-30T18:51:25.899Z,7.60
2022-11-30T18:53:52.141Z,8.21
2022-11-30T18:56:18.365Z,9.74
2022-11-30T18:58:44.610Z,11.81
2022-11-30T19:01:11.016Z,12.22
2022-11-30T19:03:37.303Z,11.83
2022-11-30T19:06:03.562Z,10.29
2022-11-30T19:08:29.838Z,12.59
2022-11-30T19:10:59.561Z,10.83
2022-11-30T19:13:28.333Z,11.09
2022-11-30T19:15:54.596Z,10.63
2022-11-30T19:18:23.336Z,9.79
2022-11-30T19:20:49.733Z,9.62
2022-11-30T19:23:15.977Z,9.42
2022-11-30T19:25:42.220Z,11.02
2022-11-30T19:28:08.477Z,10.65
2022-11-30T19:30:34.786Z,10.60
2022-11-30T19:33:01.099Z,11.41
2022-11-30T19:35:27.349Z,11.19
2022-11-30T19:37:53.592Z,11.27
2022-11-30T19:40:19.841Z,11.58
2022-11-30T19:42:46.105Z,12.11
2022-11-30T19:45:12.353Z,12.48
2022-11-30T19:47:38.601Z,12.14
2022-11-30T19:50:04.859Z,12.58
2022-11-30T19:52:31.107Z,12.30
2022-11-30T19:54:57.469Z,12.82
2022-11-30T19:57:23.700Z,13.12
2022-11-30T19:59:49.934Z,13.01
2022-11-30T20:02:16.283Z,13.46
2022-11-30T20:04:42.567Z,12.84
2022-11-30T20:07:08.814Z,13.10
2022-11-30T20:09:35.081Z,13.33
2022-11-30T20:12:01.329Z,13.54
2022-11-30T20:14:27.574Z,13.12
2022-11-30T20:16:53.803Z,12.65
2022-11-30T20:19:20.357Z,12.62
2022-11-30T20:21:46.637Z,13.04
2022-11-30T20:24:12.877Z,13.54
2022-11-30T20:26:39.143Z,13.16
2022-11-30T20:29:05.387Z,13.72
2022-11-30T20:31:31.637Z,13.81
2022-11-30T20:33:57.900Z,14.02
2022-11-30T20:36:24.252Z,14.29
2022-11-30T20:38:50.493Z,14.25
2022-11-30T20:41:16.760Z,14.05
2022-11-30T20:43:43.007Z,13.83
2022-11-30T20:46:09.282Z,14.07
2022-11-30T20:48:35.580Z,14.19
2022-11-30T20:51:28.808Z,13.76
2022-11-30T20:53:48.038Z,14.56
2022-11-30T20:56:14.289Z,14.46
2022-11-30T20:58:40.544Z,14.74
2022-11-30T21:01:06.838Z,15.28
2022-11-30T21:03:33.105Z,15.24
2022-11-30T21:05:59.462Z,15.12
2022-11-30T21:08:25.713Z,15.87
2022-11-30T21:10:51.962Z,16.07
2022-11-30T21:13:18.207Z,16.12
2022-11-30T21:15:44.579Z,16.02
2022-11-30T21:18:10.845Z,17.08
2022-11-30T21:20:37.081Z,16.29
2022-11-30T21:23:03.323Z,17.68
2022-11-30T21:25:29.566Z,17.91
2022-11-30T21:27:55.829Z,18.49
2022-11-30T21:30:22.093Z,17.79
2022-11-30T21:32:48.334Z,18.05
2022-11-30T21:35:14.573Z,17.93
2022-11-30T21:37:40.827Z,18.91
2022-11-30T21:40:07.088Z,18.24
2022-11-30T21:42:33.334Z,18.22
2022-11-30T21:44:59.569Z,18.23
2022-11-30T21:47:25.821Z,17.90
2022-11-30T21:49:52.070Z,18.07
2022-11-30T21:52:18.330Z,17.19
2022-11-30T21:54:44.571Z,16.36
2022-11-30T21:57:10.819Z,15.46
2022-11-30T21:59:37.064Z,15.76
2022-11-30T22:02:03.300Z,14.72
2022-11-30T22:04:29.678Z,13.83
2022-11-30T22:06:55.962Z,14.08
2022-11-30T22:09:22.199Z,13.26
2022-11-30T22:11:48.446Z,13.62
2022-11-30T22:14:14.677Z,13.72
2022-11-30T22:16:40.933Z,13.07
2022-11-30T22:19:07.229Z,12.77
2022-11-30T22:21:33.505Z,12.76
2022-11-30T22:23:59.744Z,12.84
2022-11-30T22:26:25.981Z,12.43
2022-11-30T22:28:52.241Z,12.62
2022-11-30T22:31:18.517Z,12.60
2022-11-30T22:33:44.780Z,12.11
2022-11-30T22:36:11.017Z,12.23
2022-11-30T22:38:37.288Z,12.33
2022-11-30T22:41:03.527Z,12.40
2022-11-30T22:43:29.779Z,12.27
2022-11-30T22:45:56.046Z,12.33
2022-11-30T22:48:22.289Z,11.82
2022-11-30T22:50:48.522Z,11.95
2022-11-30T22:53:14.780Z,11.95
2022-11-30T22:55:46.638Z,11.85
2022-11-30T22:58:14.284Z,11.84
2022-11-30T23:00:40.589Z,12.18
2022-11-30T23:03:06.931Z,11.90
2022-11-30T23:05:33.202Z,11.70
2022-11-30T23:07:59.482Z,11.57
2022-11-30T23:10:25.773Z,12.11
2022-11-30T23:12:59.480Z,11.75
2022-11-30T23:15:26.241Z,11.77
2022-11-30T23:17:52.535Z,12.11
2022-11-30T23:20:18.794Z,12.36
2022-11-30T23:22:45.042Z,12.61
2022-11-30T23:25:11.289Z,12.05
2022-11-30T23:27:37.531Z,11.94
2022-11-30T23:30:03.788Z,12.17
2022-11-30T23:32:30.042Z,12.76
2022-11-30T23:34:56.302Z,12.56
2022-11-30T23:37:22.542Z,12.76
2022-11-30T23:39:48.971Z,13.79
2022-11-30T23:42:15.360Z,14.29
2022-11-30T23:44:41.631Z,14.34
2022-11-30T23:47:08.000Z,14.27
2022-11-30T23:49:34.293Z,13.78
2022-11-30T23:52:00.533Z,14.29
2022-11-30T23:54:26.787Z,14.44
2022-11-30T23:56:53.040Z,14.51
2022-11-30T23:59:19.285Z,15.09
